createdAt,value
2023-04-03T00:01:16.601Z,3.77
2023-04-03T00:03:44.441Z,3.75
2023-04-03T00:06:13.132Z,3.47
2023-04-03T00:08:41.632Z,3.67
2023-04-03T00:11:09.744Z,3.71
2023-04-03T00:13:38.206Z,3.70
2023-04-03T00:16:06.643Z,3.68
2023-04-03T00:18:34.314Z,3.50
2023-04-03T00:21:01.847Z,3.62
2023-04-03T00:23:29.201Z,3.69
2023-04-03T00:25:56.951Z,3.66
2023-04-03T00:28:24.665Z,3.59
2023-04-03T00:30:52.916Z,3.60
2023-04-03T00:33:25.773Z,3.48
2023-04-03T00:35:54.321Z,3.55
2023-04-03T00:38:22.092Z,3.64
2023-04-03T00:40:50.649Z,3.58
2023-04-03T00:43:22.514Z,3.35
2023-04-03T00:45:52.442Z,3.38
2023-04-03T00:48:26.692Z,3.46
2023-04-03T00:50:54.988Z,3.35
2023-04-03T00:53:36.581Z,3.36
2023-04-03T00:56:10.272Z,3.41
2023-04-03T00:58:57.774Z,3.26
2023-04-03T01:01:29.195Z,3.02
2023-04-03T01:03:56.996Z,3.02
2023-04-03T01:06:29.770Z,3.25
2023-04-03T01:09:01.335Z,3.30
2023-04-03T01:11:29.112Z,3.21
2023-04-03T01:13:56.555Z,3.23
2023-04-03T01:16:24.973Z,2.86
2023-04-03T01:18:52.831Z,2.70
2023-04-03T01:21:49.444Z,2.75
2023-04-03T01:24:28.757Z,2.54
2023-04-03T01:26:56.731Z,2.61
2023-04-03T01:29:24.368Z,2.68
2023-04-03T01:32:00.142Z,2.79
2023-04-03T01:34:29.461Z,2.88
2023-04-03T01:36:57.005Z,2.99
2023-04-03T01:39:24.315Z,2.93
2023-04-03T01:41:52.042Z,2.92
2023-04-03T01:44:19.769Z,2.71
2023-04-03T01:46:48.663Z,2.89
2023-04-03T01:49:16.362Z,2.85
2023-04-03T01:51:43.641Z,2.71
2023-04-03T01:54:11.363Z,2.65
2023-04-03T01:56:40.246Z,2.73
2023-04-03T01:59:08.512Z,2.63
2023-04-03T02:01:36.291Z,2.50
2023-04-03T02:04:04.162Z,2.60
2023-04-03T02:06:31.532Z,2.34
2023-04-03T02:08:58.940Z,2.25
2023-04-03T02:11:26.733Z,2.25
2023-04-03T02:13:54.020Z,2.24
2023-04-03T02:16:21.328Z,2.27
2023-04-03T02:18:51.102Z,2.36
2023-04-03T02:21:19.023Z,2.38
2023-04-03T02:23:46.530Z,2.45
2023-04-03T02:26:16.439Z,2.43
2023-04-03T02:28:46.412Z,2.50
2023-04-03T02:31:14.356Z,2.53
2023-04-03T02:33:42.228Z,2.71
2023-04-03T02:36:10.598Z,2.68
2023-04-03T02:38:38.612Z,2.40
2023-04-03T02:41:08.553Z,1.95
2023-04-03T02:43:36.329Z,2.14
2023-04-03T02:46:04.558Z,2.13
2023-04-03T02:48:32.756Z,2.25
2023-04-03T02:51:00.120Z,2.06
2023-04-03T02:53:27.839Z,2.28
2023-04-03T02:55:55.216Z,2.29
2023-04-03T02:58:22.501Z,2.43
2023-04-03T03:00:50.941Z,2.25
2023-04-03T03:03:18.304Z,2.24
2023-04-03T03:05:45.929Z,2.04
2023-04-03T03:08:13.601Z,1.92
2023-04-03T03:10:40.879Z,1.94
2023-04-03T03:13:08.375Z,1.95
2023-04-03T03:15:36.317Z,2.14
2023-04-03T03:18:03.964Z,2.19
2023-04-03T03:20:31.669Z,2.27
2023-04-03T03:22:59.392Z,2.36
2023-04-03T03:25:26.734Z,2.47
2023-04-03T03:27:54.501Z,2.45
2023-04-03T03:30:22.422Z,2.19
2023-04-03T03:32:49.792Z,2.20
2023-04-03T03:35:17.158Z,2.18
2023-04-03T03:37:44.878Z,2.27
2023-04-03T03:40:14.254Z,2.25
2023-04-03T03:42:41.453Z,2.41
2023-04-03T03:45:10.552Z,2.21
2023-04-03T03:47:38.171Z,2.21
2023-04-03T03:50:06.376Z,2.20
2023-04-03T03:52:34.268Z,2.05
2023-04-03T03:55:01.701Z,2.12
2023-04-03T03:57:30.054Z,2.24
2023-04-03T03:59:58.001Z,2.18
2023-04-03T04:02:25.796Z,1.97
2023-04-03T04:04:53.755Z,2.12
2023-04-03T04:07:21.446Z,2.11
2023-04-03T04:09:49.109Z,2.23
2023-04-03T04:12:17.388Z,2.24
2023-04-03T04:14:47.732Z,2.36
2023-04-03T04:17:16.294Z,2.32
2023-04-03T04:19:45.046Z,2.12
2023-04-03T04:22:12.788Z,2.25
2023-04-03T04:24:40.617Z,2.04
2023-04-03T04:27:09.215Z,1.91
2023-04-03T04:29:38.383Z,1.97
2023-04-03T04:32:06.139Z,1.86
2023-04-03T04:34:33.936Z,1.93
2023-04-03T04:37:01.998Z,2.01
2023-04-03T04:39:30.250Z,1.87
2023-04-03T04:41:58.352Z,1.99
2023-04-03T04:44:26.441Z,1.65
2023-04-03T04:46:54.538Z,1.39
2023-04-03T04:49:22.302Z,1.22
2023-04-03T04:51:52.312Z,1.58
2023-04-03T04:54:20.306Z,1.71
2023-04-03T04:56:48.858Z,1.82
2023-04-03T04:59:17.030Z,1.92
2023-04-03T05:01:44.727Z,1.81
2023-04-03T05:04:13.985Z,2.03
2023-04-03T05:06:41.907Z,2.00
2023-04-03T05:09:11.085Z,2.38
2023-04-03T05:11:40.325Z,2.56
2023-04-03T05:14:09.370Z,2.87
2023-04-03T05:16:37.447Z,2.83
2023-04-03T05:19:05.580Z,2.53
2023-04-03T05:21:33.736Z,2.58
2023-04-03T05:24:04.149Z,2.55
2023-04-03T05:26:33.372Z,2.64
2023-04-03T05:29:01.324Z,2.81
2023-04-03T05:31:30.814Z,2.72
2023-04-03T05:33:59.528Z,3.02
2023-04-03T05:36:28.063Z,2.97
2023-04-03T05:38:57.562Z,2.66
2023-04-03T05:41:26.946Z,3.01
2023-04-03T05:43:54.440Z,2.79
2023-04-03T05:46:23.423Z,2.62
2023-04-03T05:48:52.486Z,2.88
2023-04-03T05:51:41.044Z,3.10
2023-04-03T05:54:21.645Z,2.88
2023-04-03T05:56:50.640Z,2.95
2023-04-03T05:59:20.746Z,2.90
2023-04-03T06:01:50.023Z,2.77
2023-04-03T06:04:17.840Z,2.87
2023-04-03T06:06:59.041Z,3.10
2023-04-03T06:09:30.173Z,3.23
2023-04-03T06:11:59.874Z,3.21
2023-04-03T06:14:28.521Z,3.38
2023-04-03T06:16:56.114Z,3.42
2023-04-03T06:19:24.382Z,3.71
2023-04-03T06:21:53.076Z,4.08
2023-04-03T06:24:22.907Z,4.03
2023-04-03T06:26:52.504Z,4.22
2023-04-03T06:29:22.089Z,4.46
2023-04-03T06:31:50.546Z,4.69
2023-04-03T06:34:19.316Z,4.77
2023-04-03T06:36:47.069Z,4.82
2023-04-03T06:39:17.752Z,5.11
2023-04-03T06:41:45.574Z,5.17
2023-04-03T06:44:16.820Z,5.02
2023-04-03T06:46:46.536Z,5.07
2023-04-03T06:49:16.611Z,5.48
2023-04-03T06:51:44.025Z,5.33
2023-04-03T06:54:11.366Z,5.32
2023-04-03T06:56:39.037Z,5.40
2023-04-03T06:59:06.403Z,5.59
2023-04-03T07:01:33.834Z,5.71
2023-04-03T07:04:01.764Z,5.94
2023-04-03T07:06:29.800Z,5.87
2023-04-03T07:08:57.469Z,5.77
2023-04-03T07:11:25.666Z,5.67
2023-04-03T07:13:53.663Z,5.48
2023-04-03T07:16:22.463Z,5.73
2023-04-03T07:18:50.662Z,5.91
2023-04-03T07:21:18.116Z,5.99
2023-04-03T07:23:46.049Z,6.25
2023-04-03T07:26:14.080Z,6.21
2023-04-03T07:28:42.555Z,6.04
2023-04-03T07:31:14.779Z,6.21
2023-04-03T07:33:43.016Z,6.61
2023-04-03T07:36:12.062Z,6.87
2023-04-03T07:38:39.413Z,6.93
2023-04-03T07:41:07.721Z,7.08
2023-04-03T07:43:35.615Z,7.12
2023-04-03T07:46:06.524Z,7.41
2023-04-03T07:48:36.080Z,7.39
2023-04-03T07:51:05.168Z,7.56
2023-04-03T07:53:33.151Z,7.63
2023-04-03T07:56:01.197Z,7.71
2023-04-03T07:58:28.563Z,7.89
2023-04-03T08:00:55.884Z,7.79
2023-04-03T08:03:23.875Z,7.71
2023-04-03T08:05:52.042Z,8.02
2023-04-03T08:08:23.284Z,7.68
2023-04-03T08:10:54.854Z,8.05
2023-04-03T08:13:23.630Z,7.95
2023-04-03T08:15:52.027Z,8.20
2023-04-03T08:18:22.528Z,8.23
2023-04-03T08:20:49.921Z,8.42
2023-04-03T08:23:19.900Z,8.44
2023-04-03T08:25:47.714Z,8.45
2023-04-03T08:28:15.174Z,8.62
2023-04-03T08:30:43.966Z,8.89
2023-04-03T08:33:11.908Z,9.18
2023-04-03T08:35:43.709Z,9.38
2023-04-03T08:38:11.734Z,9.27
2023-04-03T08:40:40.830Z,9.04
2023-04-03T08:43:30.863Z,9.26
2023-04-03T08:46:02.521Z,9.51
2023-04-03T08:48:37.768Z,9.75
2023-04-03T08:51:16.330Z,9.84
2023-04-03T08:53:52.153Z,10.05
2023-04-03T08:56:21.794Z,10.30
2023-04-03T08:58:50.774Z,10.26
2023-04-03T09:01:27.602Z,10.59
2023-04-03T09:03:55.715Z,10.54
2023-04-03T09:06:30.263Z,10.73
2023-04-03T09:09:33.973Z,10.74
2023-04-03T09:12:20.161Z,11.06
2023-04-03T09:14:55.250Z,11.18
2023-04-03T09:17:36.674Z,11.28
2023-04-03T09:20:08.023Z,11.21
2023-04-03T09:22:45.722Z,11.39
2023-04-03T09:25:34.462Z,11.40
2023-04-03T09:28:10.997Z,11.51
2023-04-03T09:30:39.536Z,11.52
2023-04-03T09:33:08.406Z,11.55
2023-04-03T09:35:47.368Z,11.91
2023-04-03T09:38:19.886Z,11.75
2023-04-03T09:41:05.013Z,11.39
2023-04-03T09:43:35.722Z,11.25
2023-04-03T09:46:34.210Z,11.03
2023-04-03T09:49:09.517Z,10.90
2023-04-03T09:51:38.836Z,11.14
2023-04-03T09:54:32.733Z,11.23
2023-04-03T09:57:09.270Z,11.10
2023-04-03T09:59:45.678Z,11.00
2023-04-03T10:02:24.615Z,10.93
2023-04-03T10:05:02.362Z,10.89
2023-04-03T10:07:39.048Z,10.83
2023-04-03T10:10:16.081Z,10.96
2023-04-03T10:12:43.524Z,11.00
2023-04-03T10:15:17.070Z,11.05
2023-04-03T10:18:08.771Z,11.03
2023-04-03T10:20:48.315Z,11.11
2023-04-03T10:24:08.178Z,11.18
2023-04-03T10:26:42.429Z,11.16
2023-04-03T10:29:44.085Z,10.83
2023-04-03T10:32:54.526Z,10.59
2023-04-03T10:35:38.124Z,10.39
2023-04-03T10:38:32.854Z,10.37
2023-04-03T10:41:24.567Z,10.43
2023-04-03T10:43:53.612Z,10.50
2023-04-03T10:46:43.321Z,10.55
2023-04-03T10:49:17.757Z,10.66
2023-04-03T10:51:53.963Z,10.55
2023-04-03T10:54:57.582Z,10.47
2023-04-03T10:57:27.478Z,10.05
2023-04-03T11:00:00.774Z,9.76
2023-04-03T11:02:34.034Z,9.51
2023-04-03T11:05:41.109Z,9.55
2023-04-03T11:08:35.185Z,9.54
2023-04-03T11:11:15.493Z,9.48
2023-04-03T11:14:03.601Z,9.21
2023-04-03T11:16:53.097Z,9.23
2023-04-03T11:19:26.448Z,9.37
2023-04-03T11:22:21.930Z,9.22
2023-04-03T11:25:04.270Z,9.32
2023-04-03T11:27:52.136Z,9.20
2023-04-03T11:30:41.424Z,9.17
2023-04-03T11:33:34.630Z,9.22
2023-04-03T11:36:26.033Z,9.20
2023-04-03T11:39:02.489Z,8.97
2023-04-03T11:41:33.100Z,8.75
2023-04-03T11:44:28.065Z,8.64
2023-04-03T11:46:58.894Z,8.53
2023-04-03T11:49:53.379Z,8.42
2023-04-03T11:52:44.416Z,8.37
2023-04-03T11:55:24.693Z,8.40
2023-04-03T11:58:04.356Z,8.38
2023-04-03T12:00:52.194Z,8.29
2023-04-03T12:03:26.169Z,8.16
2023-04-03T12:05:55.246Z,8.10
2023-04-03T12:08:42.725Z,8.18
2023-04-03T12:11:10.404Z,8.07
2023-04-03T12:13:50.578Z,8.00
2023-04-03T12:16:26.013Z,8.14
2023-04-03T12:18:53.812Z,8.14
2023-04-03T12:21:48.504Z,8.13
2023-04-03T12:24:22.352Z,8.21
2023-04-03T12:27:20.989Z,7.99
2023-04-03T12:29:52.689Z,8.14
2023-04-03T12:32:23.249Z,8.10
2023-04-03T12:35:13.271Z,8.08
2023-04-03T12:38:03.283Z,8.11
2023-04-03T12:40:43.019Z,7.94
2023-04-03T12:43:47.400Z,7.87
2023-04-03T12:46:24.666Z,7.86
2023-04-03T12:48:56.477Z,7.89
2023-04-03T12:51:36.146Z,7.86
2023-04-03T12:54:14.328Z,8.11
2023-04-03T12:56:42.352Z,8.00
2023-04-03T12:59:23.440Z,8.05
2023-04-03T13:01:59.775Z,8.13
2023-04-03T13:04:29.896Z,8.25
2023-04-03T13:06:58.031Z,8.04
2023-04-03T13:09:28.943Z,7.88
2023-04-03T13:11:59.209Z,7.83
2023-04-03T13:14:30.214Z,7.75
2023-04-03T13:17:00.553Z,7.56
2023-04-03T13:19:30.130Z,7.56
2023-04-03T13:22:05.907Z,7.59
2023-04-03T13:24:37.426Z,7.51
2023-04-03T13:27:06.584Z,7.38
2023-04-03T13:29:37.336Z,7.50
2023-04-03T13:32:07.423Z,7.61
2023-04-03T13:34:45.194Z,7.66
2023-04-03T13:37:28.297Z,7.51
2023-04-03T13:40:12.983Z,7.38
2023-04-03T13:42:42.922Z,7.58
2023-04-03T13:45:17.684Z,7.57
2023-04-03T13:47:46.899Z,7.66
2023-04-03T13:50:23.622Z,7.74
2023-04-03T13:52:56.153Z,7.63
2023-04-03T13:55:30.215Z,7.73
2023-04-03T13:58:09.579Z,7.67
2023-04-03T14:00:39.421Z,7.51
2023-04-03T14:03:25.885Z,7.32
2023-04-03T14:05:54.604Z,7.33
2023-04-03T14:08:32.371Z,7.36
2023-04-03T14:11:07.387Z,7.20
2023-04-03T14:13:35.107Z,7.39
2023-04-03T14:16:15.028Z,7.39
2023-04-03T14:18:47.729Z,7.55
2023-04-03T14:21:17.571Z,7.58
2023-04-03T14:23:46.543Z,7.49
2023-04-03T14:26:17.587Z,7.54
2023-04-03T14:28:48.106Z,7.66
2023-04-03T14:31:17.089Z,7.67
2023-04-03T14:33:45.457Z,7.78
2023-04-03T14:36:15.897Z,8.03
2023-04-03T14:38:44.658Z,7.87
2023-04-03T14:41:17.045Z,7.98
2023-04-03T14:43:45.692Z,8.02
2023-04-03T14:46:19.205Z,8.05
2023-04-03T14:48:47.221Z,8.17
2023-04-03T14:51:16.615Z,7.94
2023-04-03T14:53:46.062Z,8.14
2023-04-03T14:56:30.902Z,7.87
2023-04-03T14:59:02.487Z,7.64
2023-04-03T15:01:31.449Z,7.65
2023-04-03T15:03:59.241Z,7.62
2023-04-03T15:06:27.327Z,7.83
2023-04-03T15:08:54.618Z,7.67
2023-04-03T15:11:22.333Z,7.71
2023-04-03T15:13:49.674Z,7.50
2023-04-03T15:16:19.693Z,7.44
2023-04-03T15:18:48.575Z,7.37
2023-04-03T15:21:16.458Z,7.47
2023-04-03T15:23:46.421Z,7.41
2023-04-03T15:26:15.004Z,7.26
2023-04-03T15:28:43.950Z,7.32
2023-04-03T15:31:12.052Z,7.36
2023-04-03T15:33:40.238Z,7.36
2023-04-03T15:36:17.224Z,7.46
2023-04-03T15:38:55.492Z,7.26
2023-04-03T15:41:23.045Z,7.11
2023-04-03T15:43:50.568Z,7.20
2023-04-03T15:46:18.354Z,7.08
2023-04-03T15:48:46.076Z,7.06
2023-04-03T15:51:13.523Z,6.75
2023-04-03T15:53:41.278Z,6.92
2023-04-03T15:56:10.789Z,7.11
2023-04-03T15:58:38.185Z,6.92
2023-04-03T16:01:06.975Z,6.97
2023-04-03T16:03:37.924Z,6.90
2023-04-03T16:06:05.634Z,7.08
2023-04-03T16:08:33.123Z,7.20
2023-04-03T16:11:00.983Z,7.31
2023-04-03T16:13:29.463Z,7.63
2023-04-03T16:15:57.080Z,7.41
2023-04-03T16:18:24.774Z,7.52
2023-04-03T16:20:52.170Z,7.22
2023-04-03T16:23:20.068Z,7.52
2023-04-03T16:25:48.191Z,7.70
2023-04-03T16:28:16.194Z,7.64
2023-04-03T16:30:44.664Z,7.48
2023-04-03T16:33:13.840Z,7.61
2023-04-03T16:35:43.143Z,7.88
2023-04-03T16:38:10.513Z,7.59
2023-04-03T16:40:38.350Z,7.67
2023-04-03T16:43:05.892Z,7.45
2023-04-03T16:45:33.352Z,7.48
2023-04-03T16:48:01.242Z,7.73
2023-04-03T16:50:28.910Z,7.35
2023-04-03T16:52:56.392Z,7.32
2023-04-03T16:55:24.204Z,7.57
2023-04-03T16:57:51.704Z,7.48
2023-04-03T17:00:19.271Z,7.50
2023-04-03T17:02:47.004Z,7.37
2023-04-03T17:05:14.535Z,7.30
2023-04-03T17:07:41.986Z,7.25
2023-04-03T17:10:09.906Z,7.24
2023-04-03T17:12:38.427Z,7.18
2023-04-03T17:15:06.354Z,7.21
2023-04-03T17:17:34.654Z,7.37
2023-04-03T17:20:02.552Z,7.46
2023-04-03T17:22:30.931Z,7.63
2023-04-03T17:25:00.366Z,7.52
2023-04-03T17:27:28.481Z,7.62
2023-04-03T17:29:56.222Z,7.46
2023-04-03T17:32:26.982Z,7.75
2023-04-03T17:34:54.849Z,7.74
2023-04-03T17:37:22.299Z,7.53
2023-04-03T17:39:50.231Z,7.15
2023-04-03T17:42:18.569Z,7.25
2023-04-03T17:44:47.030Z,7.44
2023-04-03T17:47:15.595Z,7.72
2023-04-03T17:49:43.142Z,7.36
2023-04-03T17:52:13.689Z,7.30
2023-04-03T17:54:42.234Z,7.26
2023-04-03T17:57:20.987Z,7.28
2023-04-03T17:59:49.589Z,7.28
2023-04-03T18:02:17.331Z,7.35
2023-04-03T18:04:45.648Z,7.22
2023-04-03T18:07:13.099Z,7.40
2023-04-03T18:09:41.523Z,7.42
2023-04-03T18:12:10.690Z,7.36
2023-04-03T18:14:39.652Z,7.23
2023-04-03T18:17:07.622Z,7.24
2023-04-03T18:19:35.762Z,7.24
2023-04-03T18:22:24.322Z,7.25
2023-04-03T18:24:53.886Z,7.44
2023-04-03T18:27:23.413Z,7.47
2023-04-03T18:29:54.437Z,7.47
2023-04-03T18:32:23.373Z,7.51
2023-04-03T18:34:50.948Z,7.32
2023-04-03T18:37:19.141Z,7.37
2023-04-03T18:39:47.067Z,7.31
2023-04-03T18:42:18.760Z,7.49
2023-04-03T18:44:50.797Z,7.51
2023-04-03T18:47:19.246Z,7.40
2023-04-03T18:49:46.904Z,7.23
2023-04-03T18:52:14.651Z,7.44
2023-04-03T18:54:43.083Z,7.15
2023-04-03T18:57:10.472Z,7.04
2023-04-03T18:59:38.837Z,7.12
2023-04-03T19:02:08.798Z,7.01
2023-04-03T19:04:37.165Z,6.98
2023-04-03T19:07:06.617Z,7.06
2023-04-03T19:09:34.934Z,7.42
2023-04-03T19:12:02.383Z,7.42
2023-04-03T19:14:29.734Z,7.55
2023-04-03T19:16:57.664Z,7.40
2023-04-03T19:19:25.365Z,7.15
2023-04-03T19:21:52.735Z,7.27
2023-04-03T19:24:21.897Z,7.20
2023-04-03T19:26:49.232Z,7.14
2023-04-03T19:29:16.696Z,7.16
2023-04-03T19:31:44.535Z,7.13
2023-04-03T19:34:12.189Z,7.17
2023-04-03T19:36:39.732Z,7.31
2023-04-03T19:39:07.927Z,6.87
2023-04-03T19:41:37.228Z,7.07
2023-04-03T19:44:06.761Z,7.16
2023-04-03T19:46:35.847Z,7.34
2023-04-03T19:49:03.899Z,7.15
2023-04-03T19:51:31.355Z,7.20
2023-04-03T19:53:59.073Z,7.22
2023-04-03T19:56:27.312Z,7.22
2023-04-03T19:58:55.113Z,7.23
2023-04-03T20:01:24.538Z,7.33
2023-04-03T20:03:52.727Z,7.25
2023-04-03T20:06:20.236Z,7.28
2023-04-03T20:08:47.866Z,7.22
2023-04-03T20:11:15.762Z,7.25
2023-04-03T20:13:43.129Z,7.35
2023-04-03T20:16:10.645Z,7.43
2023-04-03T20:18:38.950Z,7.41
2023-04-03T20:21:07.062Z,7.62
2023-04-03T20:23:37.307Z,7.33
2023-04-03T20:26:11.763Z,7.18
2023-04-03T20:28:43.649Z,6.99
2023-04-03T20:31:14.401Z,6.88
2023-04-03T20:33:42.060Z,7.13
2023-04-03T20:36:09.747Z,7.16
2023-04-03T20:38:37.506Z,7.29
2023-04-03T20:41:05.532Z,7.56
2023-04-03T20:43:33.078Z,7.49
2023-04-03T20:46:01.768Z,7.51
2023-04-03T20:48:31.481Z,7.36
2023-04-03T20:50:59.141Z,7.41
2023-04-03T20:53:27.604Z,7.28
2023-04-03T20:56:00.432Z,7.36
2023-04-03T20:58:30.816Z,7.42
2023-04-03T21:00:58.292Z,7.40
2023-04-03T21:03:28.841Z,7.39
2023-04-03T21:06:03.973Z,7.42
2023-04-03T21:09:09.274Z,7.18
2023-04-03T21:12:14.558Z,7.28
2023-04-03T21:15:21.568Z,7.33
2023-04-03T21:18:10.443Z,7.39
2023-04-03T21:20:38.067Z,7.48
2023-04-03T21:23:06.654Z,7.43
2023-04-03T21:25:34.441Z,7.26
2023-04-03T21:28:02.605Z,7.35
2023-04-03T21:30:30.177Z,7.43
2023-04-03T21:32:57.977Z,7.45
2023-04-03T21:35:25.349Z,7.66
2023-04-03T21:37:53.238Z,7.60
2023-04-03T21:40:21.026Z,7.51
2023-04-03T21:42:54.217Z,7.51
2023-04-03T21:45:21.947Z,7.51
2023-04-03T21:47:49.219Z,7.55
2023-04-03T21:50:16.762Z,7.59
2023-04-03T21:52:45.498Z,7.54
2023-04-03T21:55:12.849Z,7.49
2023-04-03T21:57:40.177Z,7.37
2023-04-03T22:00:10.943Z,7.15
2023-04-03T22:02:42.048Z,7.13
2023-04-03T22:05:09.499Z,7.01
2023-04-03T22:07:37.378Z,7.11
2023-04-03T22:10:05.766Z,7.10
2023-04-03T22:12:32.982Z,7.21
2023-04-03T22:15:00.706Z,7.05
2023-04-03T22:17:31.476Z,6.91
2023-04-03T22:19:58.884Z,6.84
2023-04-03T22:22:26.673Z,6.84
2023-04-03T22:24:55.769Z,6.83
2023-04-03T22:27:23.212Z,6.88
2023-04-03T22:29:50.587Z,6.84
2023-04-03T22:32:18.233Z,6.97
2023-04-03T22:34:45.537Z,6.90
2023-04-03T22:37:12.860Z,6.92
2023-04-03T22:39:40.445Z,6.91
2023-04-03T22:42:07.977Z,6.91
2023-04-03T22:44:36.755Z,6.78
2023-04-03T22:47:04.456Z,6.71
2023-04-03T22:49:32.238Z,6.70
2023-04-03T22:51:59.601Z,6.84
2023-04-03T22:54:27.118Z,6.60
2023-04-03T22:56:54.483Z,6.59
2023-04-03T22:59:21.805Z,6.56
2023-04-03T23:01:49.403Z,6.53
2023-04-03T23:04:16.793Z,6.54
2023-04-03T23:06:44.089Z,6.48
2023-04-03T23:09:11.676Z,6.45
2023-04-03T23:11:38.843Z,6.52
2023-04-03T23:14:07.840Z,6.33
2023-04-03T23:16:35.539Z,6.32
2023-04-03T23:19:03.471Z,6.49
2023-04-03T23:21:30.644Z,6.43
2023-04-03T23:23:58.390Z,6.37
2023-04-03T23:26:26.623Z,6.40
2023-04-03T23:28:53.896Z,6.43
2023-04-03T23:31:21.615Z,6.45
2023-04-03T23:33:48.963Z,6.34
2023-04-03T23:36:16.927Z,6.47
2023-04-03T23:38:44.607Z,6.43
2023-04-03T23:41:13.142Z,6.54
2023-04-03T23:43:41.656Z,6.47
2023-04-03T23:46:09.305Z,6.43
2023-04-03T23:48:36.649Z,6.38
2023-04-03T23:51:04.078Z,6.48
2023-04-03T23:53:31.720Z,6.53
2023-04-03T23:56:00.815Z,6.56
2023-04-03T23:58:28.004Z,6.53
